Toronto, Ontario

1:47 AM EST on December 22, 2014 (GMT -0500)
Parkdale | Change Station
CLOSE
Current Station
Personal Weather Station
Location: Toronto, ONTARIO
Elevation: 300 ft
Nearby Weather Stations

Elev 300 ft 43.64 °N, 79.43 °W | Updated 7 seconds ago

Overcast
Overcast
33.8 °F
Feels Like 34 °F
N
1.8
Wind Variable Wind from South
Gusts 2.5 mph

Today is forecast to be nearly the same temperature as yesterday.

Today
High -- | Low -- °F
--% Chance of Precip.
Yesterday
High -- | Low -- °F
Precip. -- in
7:48 AM 4:44 PM
New Moon, 0% visible
Pressure 30.29 in
Visibility 9.0 miles
Clouds Overcast 2800 ft
Windchill 34 °F
Dew Point 20 °F
Humidity 57%
Rainfall 0.00 in
Snow Depth Not available.
UV 0.0 out of 12
Pollen Not available.
Air Quality Not available.
Flu Activity Not available.
METAR CYTZ 220600Z AUTO 15005KT 9SM OVC028 01/M05 A3028 RMK SLP255

More Conditions Fewer Conditions

Pressure 30.29 in
Visibility 9.0 miles
Clouds Overcast 2800 ft
Windchill 34 °F
Dew Point 20 °F
Humidity 57%
Rainfall 0.00 in
Snow Depth Not available.
UV 0.0 out of 12
Pollen Not available.
Air Quality Not available.
Flu Activity Not available.
METAR CYTZ 220600Z AUTO 15005KT 9SM OVC028 01/M05 A3028 RMK SLP255

More Conditions Fewer Conditions

10-Day Weather Forecast

Almanac

Astronomy

Dec. 22, 2014 Rise Set
Actual Time
Civil Twilight
Nautical Twilight
Astronomical Twilight
Moon
Length of Visible Light
Length of Day
Tomorrow will be .
, % of the Moon is Illuminated

Today's Extremes

Country Highs Country Lows

Community

WunderPhotos

Upload Photos

1,779,560 photos uploaded!

WunderBlogs® & News

Nearby

Air Quality

  Air Quality AQ Index Pollutant
Not available.

Snow Depth

Station Depth Elevation

Earthquake Activity

City Distance Mag. Time & Date
Minimum magnitude displayed is 2.5.

Coastal Water Temperatures

Place Temperature

Nearby Weather Stations